WetterOnline ( https://www.wetteronline.de )

Wetter aktuell Stiege

Aktuelles Wetter: Braunlage (609m)

6-stündlich | Neueste Meldungen
Ortszeit Temperatur Wetter
Mi, 18.05. 2:00 13.3° C wolkig
Di, 17.05. 20:00 17.7° C leicht bewölkt
Di, 17.05. 14:00 18.3° C bewölkt
Di, 17.05. 8:00 13.1° C bedeckt
Di, 17.05. 2:00 13.8° C Sprühregen
Mo, 16.05. 20:00 17.4° C wolkig
Mo, 16.05. 14:00 19.2° C bedeckt
Mo, 16.05. 8:00 15.7° C leicht bewölkt
Ortszeit Temperatur Wetter
Mi, 18.05. 5:30 13.1° C bewölkt
Mi, 18.05. 5:20 13.1° C bewölkt
Mi, 18.05. 5:10 12.9° C bedeckt
Mi, 18.05. 5:00 11.3° C wolkig
Mi, 18.05. 4:50 11.3° C wolkig
Mi, 18.05. 4:40 11.6° C bewölkt
Mi, 18.05. 4:30 12.0° C bewölkt
Mi, 18.05. 4:00 11.6° C bewölkt
Mi, 18.05. 3:30 11.7° C wolkig
Mi, 18.05. 3:00 12.0° C wolkig
Mi, 18.05. 2:30 12.7° C wolkig
Ortszeit Relative Feuchte Sichtweite
Mi, 18.05. 2:00 85% 23 km
Di, 17.05. 20:00 59% 60 km
Di, 17.05. 14:00 52% >70 km
Di, 17.05. 8:00 85% 22 km
Di, 17.05. 2:00 83% 26 km
Mo, 16.05. 20:00 70% >70 km
Mo, 16.05. 14:00 56% 55 km
Mo, 16.05. 8:00 49% 50 km
Ortszeit Relative Feuchte Sichtweite
Mi, 18.05. 5:30 78% 55 km
Mi, 18.05. 5:20 78% -
Mi, 18.05. 5:10 80% -
Mi, 18.05. 5:00 85% 40 km
Mi, 18.05. 4:50 85% -
Mi, 18.05. 4:40 84% -
Mi, 18.05. 4:30 84% 40 km
Mi, 18.05. 4:00 82% 35 km
Mi, 18.05. 3:30 83% 35 km
Mi, 18.05. 3:00 85% 35 km
Mi, 18.05. 2:30 84% 30 km
Ortszeit Niederschlagsmenge Niederschlagsart
Mi, 18.05. 2:00 0.0 l/m2 in 6 Std. -
Di, 17.05. 20:00 0.1 l/m2 in 12 Std. -
Di, 17.05. 14:00 0.1 l/m2 in 6 Std. Regen
Di, 17.05. 8:00 0.1 l/m2 in 12 Std. Regen
Di, 17.05. 2:00 0.1 l/m2 in 6 Std. Regen
Mo, 16.05. 20:00 0.1 l/m2 in 12 Std. Regen
Mo, 16.05. 14:00 0.1 l/m2 in 6 Std. Regen
Mo, 16.05. 8:00 0.0 l/m2 in 12 Std. -
Ortszeit Niederschlagsmenge Niederschlagsart
Mi, 18.05. 5:30 0.0 l/m2 in 1 Std. -
Mi, 18.05. 5:20 keine Meldung -
Mi, 18.05. 5:10 keine Meldung -
Mi, 18.05. 5:00 0.0 l/m2 in 1 Std. -
Mi, 18.05. 4:50 keine Meldung -
Mi, 18.05. 4:40 keine Meldung -
Mi, 18.05. 4:30 0.0 l/m2 in 1 Std. -
Mi, 18.05. 4:00 0.0 l/m2 in 1 Std. -
Mi, 18.05. 3:30 0.0 l/m2 in 1 Std. -
Mi, 18.05. 3:00 0.0 l/m2 in 1 Std. -
Mi, 18.05. 2:30 0.0 l/m2 in 1 Std. -
Ortszeit Stärke Spitze Richtung
km/h Bft. km/h Grad Sektor
Mi, 18.05. 2:00 4 1 11 350° N
Di, 17.05. 20:00 4 1 36 40° NO
Di, 17.05. 14:00 13 3 31 320° NW
Di, 17.05. 8:00 13 3 44 320° NW
Di, 17.05. 2:00 18 3 40 300° NW
Mo, 16.05. 20:00 4 1 32 230° SW
Mo, 16.05. 14:00 20 4 41 200° S
Mo, 16.05. 8:00 7 2 15 60° NO
Ortszeit Stärke Spitze Richtung
km/h Bft. km/h Grad Sektor
Mi, 18.05. 5:30 2 1 7 340° N
Mi, 18.05. 5:20 2 1 - 340° N
Mi, 18.05. 5:10 2 1 - 330° NW
Mi, 18.05. 5:00 4 1 7 20° N
Mi, 18.05. 4:50 4 1 - 20° N
Mi, 18.05. 4:40 4 1 - 330° NW
Mi, 18.05. 4:30 4 1 7 350° N
Mi, 18.05. 4:00 2 1 7 340° N
Mi, 18.05. 3:30 4 1 7 350° N
Mi, 18.05. 3:00 4 1 7 360° N
Mi, 18.05. 2:30 4 1 7 340° N
Ortszeit Untergrenze Bedeckung Gattung
total tief tief mittel hoch
Mi, 18.05. 2:00 2700 m 8/8 2/8 - - -
Di, 17.05. 20:00 1500 m 4/8 4/8 - - -
Di, 17.05. 14:00 1140 m 7/8 7/8 - - -
Di, 17.05. 8:00 270 m 8/8 8/8 - - -
Di, 17.05. 2:00 360 m 8/8 8/8 - - -
Mo, 16.05. 20:00 1800 m 7/8 3/8 - - -
Mo, 16.05. 14:00 3000 m 8/8 8/8 - - -
Mo, 16.05. 8:00 5700 m 2/8 1/8 - - -
Ortszeit Bedeckungsgrad in Achtel und Wolkenuntergrenze
Mi, 18.05. 5:30 7(930m) 8(4200m) 8(4800m)
Mi, 18.05. 5:20 7(930m) 8(4200m) 8(4800m)
Mi, 18.05. 5:10 8
Mi, 18.05. 5:00 4(960m) 6(5100m) 7(6300m)
Mi, 18.05. 4:50 4(960m) 6(5100m) 7(6300m)
Mi, 18.05. 4:40 7
Mi, 18.05. 4:30 7(1050m) 7(2700m) 7(5400m)
Mi, 18.05. 4:00 5(5400m) 7(6300m)
Mi, 18.05. 3:30 2(2700m) 7(5700m) 7(8100m)
Mi, 18.05. 3:00 2(5700m) 7(7500m) 8(8400m)
Mi, 18.05. 2:30 1(2700m) 8(6000m) 8(7500m)
Ortszeit Luftdruck NN (hPa) Tendenz (hPa in 3 Std.)
Mi, 18.05. 2:00 1023 + 0,3
Di, 17.05. 20:00 1020 + 0,3
Di, 17.05. 14:00 1020 + 0,1
Di, 17.05. 8:00 1020 + 1,4
Di, 17.05. 2:00 1019 + 0,7
Mo, 16.05. 20:00 1016 - 0,1
Mo, 16.05. 14:00 1016 0,0
Mo, 16.05. 8:00 1017 - 0,5
Ortszeit Luftdruck NN (hPa) Tendenz (hPa in 3 Std.)
Mi, 18.05. 5:30 1023 + 0,4
Mi, 18.05. 5:20 1023 keine Meldung
Mi, 18.05. 5:10 1023 keine Meldung
Mi, 18.05. 5:00 1024 + 0,3
Mi, 18.05. 4:50 1024 keine Meldung
Mi, 18.05. 4:40 1024 keine Meldung
Mi, 18.05. 4:30 1024 + 0,5
Mi, 18.05. 4:00 1024 + 0,5
Mi, 18.05. 3:30 1023 + 0,4
Mi, 18.05. 3:00 1023 + 0,4
Mi, 18.05. 2:30 1023 + 0,3
Ortszeit Schneehöhe (cm)
Mi, 18.05. 2:00 0
Di, 17.05. 20:00 0
Di, 17.05. 14:00 0
Di, 17.05. 8:00 0
Di, 17.05. 2:00 0
Mo, 16.05. 20:00 0
Mo, 16.05. 14:00 0
Mo, 16.05. 8:00 0
Ortszeit Schneehöhe (cm)
Mi, 18.05. 5:30 0
Mi, 18.05. 5:20 0
Mi, 18.05. 5:10 0
Mi, 18.05. 5:00 0
Mi, 18.05. 4:50 0
Mi, 18.05. 4:40 0
Mi, 18.05. 4:30 0
Mi, 18.05. 4:00 0
Mi, 18.05. 3:30 0
Mi, 18.05. 3:00 0
Mi, 18.05. 2:30 0
Link zu dieser Seite / Seite empfehlen

Das Wetter in ...